Time,TemperatureF,DewpointF,PressureIn,WindDirection,WindDirectionDegrees,WindSpeedMPH,WindSpeedGustMPH,Humidity,HourlyPrecipIn,Conditions,Clouds,dailyrainin,SoftwareType,DateUTC
2016-07-24 00:07:00,67.3,55.0,30.10,NW,311,3.0,4.0,64,0.00,,,0.00,weatherlink.com 1.10,2016-07-24 06:07:00,
2016-07-24 00:22:00,66.9,54.0,30.11,North,355,2.0,4.0,64,0.00,,,0.00,weatherlink.com 1.10,2016-07-24 06:22:00,
2016-07-24 00:38:00,67.3,55.0,30.11,NNW,348,3.0,6.0,64,0.00,,,0.00,weatherlink.com 1.10,2016-07-24 06:38:00,
2016-07-24 00:52:00,68.3,55.0,30.10,WNW,286,5.0,9.0,63,0.00,,,0.00,weatherlink.com 1.10,2016-07-24 06:52:00,
2016-07-24 01:07:00,68.7,55.0,30.10,NNW,338,7.0,7.0,62,0.00,,,0.00,weatherlink.com 1.10,2016-07-24 07:07:00,
2016-07-24 01:22:00,69.2,55.0,30.08,NNW,329,4.0,9.0,61,0.00,,,0.00,weatherlink.com 1.10,2016-07-24 07:22:00,
2016-07-24 01:37:00,69.3,55.0,30.09,NW,313,2.0,7.0,60,0.00,,,0.00,weatherlink.com 1.10,2016-07-24 07:37:00,
2016-07-24 01:52:00,68.9,55.0,30.08,South,180,3.0,4.0,61,0.00,,,0.00,weatherlink.com 1.10,2016-07-24 07:52:00,
2016-07-24 02:07:00,67.5,54.0,30.08,SSW,207,2.0,4.0,63,0.00,,,0.00,weatherlink.com 1.10,2016-07-24 08:07:00,
2016-07-24 02:22:00,65.7,54.0,30.08,SW,219,0.0,3.0,66,0.00,,,0.00,weatherlink.com 1.10,2016-07-24 08:22:00,
2016-07-24 02:37:00,65.1,54.0,30.08,SW,219,1.0,3.0,68,0.00,,,0.00,weatherlink.com 1.10,2016-07-24 08:37:00,
2016-07-24 02:52:00,65.0,54.0,30.07,SW,219,3.0,4.0,67,0.00,,,0.00,weatherlink.com 1.10,2016-07-24 08:52:00,
2016-07-24 03:07:00,65.1,53.0,30.07,WSW,254,3.0,7.0,64,0.00,,,0.00,weatherlink.com 1.10,2016-07-24 09:07:00,
2016-07-24 03:22:00,68.0,54.0,30.08,East,92,11.0,13.0,61,0.00,,,0.00,weatherlink.com 1.10,2016-07-24 09:22:00,
2016-07-24 03:37:00,66.2,54.0,30.09,NE,51,5.0,7.0,66,0.00,,,0.00,weatherlink.com 1.10,2016-07-24 09:37:00,
2016-07-24 03:52:00,64.3,54.0,30.10,NNW,333,2.0,3.0,69,0.00,,,0.00,weatherlink.com 1.10,2016-07-24 09:52:00,
2016-07-24 04:07:00,63.8,55.0,30.10,NNW,332,3.0,3.0,73,0.00,,,0.00,weatherlink.com 1.10,2016-07-24 10:07:00,
2016-07-24 04:22:00,63.7,54.0,30.10,WSW,248,0.0,3.0,71,0.00,,,0.00,weatherlink.com 1.10,2016-07-24 10:22:00,
2016-07-24 04:37:00,63.8,54.0,30.10,WSW,248,0.0,2.0,71,0.00,,,0.00,weatherlink.com 1.10,2016-07-24 10:37:00,
2016-07-24 04:52:00,63.6,55.0,30.10,SW,225,2.0,4.0,73,0.00,,,0.00,weatherlink.com 1.10,2016-07-24 10:52:00,
2016-07-24 05:07:00,63.8,53.0,30.12,West,270,3.0,5.0,69,0.00,,,0.00,weatherlink.com 1.10,2016-07-24 11:07:00,
2016-07-24 05:22:00,64.1,54.0,30.11,SSW,210,0.0,3.0,69,0.00,,,0.00,weatherlink.com 1.10,2016-07-24 11:22:00,
2016-07-24 05:37:00,63.8,54.0,30.10,WNW,290,4.0,5.0,71,0.00,,,0.00,weatherlink.com 1.10,2016-07-24 11:37:00,
2016-07-24 05:52:00,64.3,53.0,30.09,West,261,0.0,6.0,66,0.00,,,0.00,weatherlink.com 1.10,2016-07-24 11:52:00,
2016-07-24 06:07:00,64.8,53.0,30.09,SW,225,2.0,4.0,66,0.00,,,0.00,weatherlink.com 1.10,2016-07-24 12:07:00,
2016-07-24 06:22:00,64.4,54.0,30.10,West,265,2.0,5.0,68,0.00,,,0.00,weatherlink.com 1.10,2016-07-24 12:22:00,
2016-07-24 06:37:00,63.5,53.0,30.10,West,277,3.0,5.0,68,0.00,,,0.00,weatherlink.com 1.10,2016-07-24 12:37:00,
2016-07-24 06:52:00,64.2,55.0,30.10,West,266,2.0,4.0,72,0.00,,,0.00,weatherlink.com 1.10,2016-07-24 12:52:00,
2016-07-24 07:07:00,66.4,55.0,30.09,West,266,0.0,3.0,68,0.00,,,0.00,weatherlink.com 1.10,2016-07-24 13:07:00,
2016-07-24 07:22:00,68.5,57.0,30.09,West,265,1.0,4.0,66,0.00,,,0.00,weatherlink.com 1.10,2016-07-24 13:22:00,
2016-07-24 07:37:00,69.7,56.0,30.10,West,269,1.0,2.0,61,0.00,,,0.00,weatherlink.com 1.10,2016-07-24 13:37:00,
2016-07-24 07:52:00,69.9,57.0,30.10,West,269,0.0,1.0,64,0.00,,,0.00,weatherlink.com 1.10,2016-07-24 13:52:00,
2016-07-24 08:07:00,70.7,56.0,30.10,West,269,0.0,2.0,61,0.00,,,0.00,weatherlink.com 1.10,2016-07-24 14:07:00,
2016-07-24 08:22:00,71.9,55.0,30.11,West,269,2.0,2.0,56,0.00,,,0.00,weatherlink.com 1.10,2016-07-24 14:22:00,
2016-07-24 08:37:00,73.1,56.0,30.11,SW,236,3.0,4.0,56,0.00,,,0.00,weatherlink.com 1.10,2016-07-24 14:37:00,
2016-07-24 08:52:00,73.7,57.0,30.12,South,178,2.0,5.0,57,0.00,,,0.00,weatherlink.com 1.10,2016-07-24 14:52:00,
2016-07-24 09:07:00,73.7,59.0,30.13,South,172,3.0,4.0,60,0.00,,,0.00,weatherlink.com 1.10,2016-07-24 15:07:00,
2016-07-24 09:23:00,73.5,57.0,30.12,SE,134,0.0,2.0,57,0.00,,,0.00,weatherlink.com 1.10,2016-07-24 15:23:00,
2016-07-24 09:38:00,73.5,58.0,30.13,SE,134,0.0,3.0,58,0.00,,,0.00,weatherlink.com 1.10,2016-07-24 15:38:00,
2016-07-24 09:53:00,73.5,57.0,30.13,SE,134,0.0,2.0,57,0.00,,,0.00,weatherlink.com 1.10,2016-07-24 15:53:00,
2016-07-24 10:08:00,74.0,56.0,30.13,SE,134,0.0,2.0,54,0.00,,,0.00,weatherlink.com 1.10,2016-07-24 16:08:00,
2016-07-24 10:23:00,75.8,58.0,30.13,South,172,0.0,5.0,54,0.00,,,0.00,weatherlink.com 1.10,2016-07-24 16:23:00,
2016-07-24 10:38:00,78.5,59.0,30.13,SE,132,2.0,6.0,51,0.00,,,0.00,weatherlink.com 1.10,2016-07-24 16:38:00,
2016-07-24 10:53:00,79.9,60.0,30.12,East,90,7.0,8.0,51,0.00,,,0.00,weatherlink.com 1.10,2016-07-24 16:53:00,
2016-07-24 11:08:00,80.1,60.0,30.13,ENE,74,5.0,11.0,50,0.00,,,0.00,weatherlink.com 1.10,2016-07-24 17:08:00,
2016-07-24 11:23:00,81.1,59.0,30.12,NNE,24,2.0,7.0,47,0.00,,,0.00,weatherlink.com 1.10,2016-07-24 17:23:00,
2016-07-24 11:38:00,82.2,59.0,30.12,ENE,76,8.0,10.0,45,0.00,,,0.00,weatherlink.com 1.10,2016-07-24 17:38:00,
2016-07-24 11:53:00,83.3,60.0,30.12,ENE,65,8.0,11.0,46,0.00,,,0.00,weatherlink.com 1.10,2016-07-24 17:53:00,
2016-07-24 12:08:00,82.7,60.0,30.12,NNE,19,2.0,8.0,46,0.00,,,0.00,weatherlink.com 1.10,2016-07-24 18:08:00,
2016-07-24 12:23:00,83.1,60.0,30.12,NNE,32,7.0,8.0,45,0.00,,,0.00,weatherlink.com 1.10,2016-07-24 18:23:00,
2016-07-24 12:38:00,83.9,59.0,30.12,NW,305,2.0,8.0,43,0.00,,,0.00,weatherlink.com 1.10,2016-07-24 18:38:00,
2016-07-24 12:53:00,84.6,60.0,30.11,SE,145,4.0,11.0,43,0.00,,,0.00,weatherlink.com 1.10,2016-07-24 18:53:00,
2016-07-24 13:08:00,86.1,60.0,30.10,East,101,8.0,8.0,41,0.00,,,0.00,weatherlink.com 1.10,2016-07-24 19:08:00,
2016-07-24 13:38:00,86.3,61.0,30.10,NE,55,4.0,13.0,42,0.00,,,0.00,weatherlink.com 1.10,2016-07-24 19:38:00,
2016-07-24 13:53:00,86.8,59.0,30.10,ENE,77,9.0,12.0,39,0.00,,,0.00,weatherlink.com 1.10,2016-07-24 19:53:00,
2016-07-24 14:08:00,87.1,57.0,30.10,NE,49,8.0,11.0,36,0.00,,,0.00,weatherlink.com 1.10,2016-07-24 20:08:00,
2016-07-24 14:23:00,86.3,60.0,30.10,East,84,10.0,14.0,41,0.00,,,0.00,weatherlink.com 1.10,2016-07-24 20:23:00,
2016-07-24 14:38:00,86.4,61.0,30.10,East,94,10.0,11.0,42,0.00,,,0.00,weatherlink.com 1.10,2016-07-24 20:38:00,
2016-07-24 14:53:00,85.3,62.0,30.10,NNE,20,5.0,9.0,46,0.00,,,0.00,weatherlink.com 1.10,2016-07-24 20:53:00,
2016-07-24 15:08:00,84.4,62.0,30.10,North,5,8.0,10.0,47,0.00,,,0.00,weatherlink.com 1.10,2016-07-24 21:08:00,
2016-07-24 15:23:00,83.2,70.0,30.11,NE,45,11.0,15.0,64,0.01,,,0.01,weatherlink.com 1.10,2016-07-24 21:23:00,
2016-07-24 15:38:00,83.0,62.0,30.10,North,355,11.0,20.0,49,0.01,,,0.01,weatherlink.com 1.10,2016-07-24 21:38:00,
2016-07-24 15:53:00,84.3,62.0,30.10,NW,306,7.0,13.0,47,0.01,,,0.01,weatherlink.com 1.10,2016-07-24 21:53:00,
2016-07-24 16:08:00,84.5,60.0,30.07,WNW,292,12.0,18.0,43,0.01,,,0.01,weatherlink.com 1.10,2016-07-24 22:08:00,
2016-07-24 16:23:00,82.3,53.0,30.07,West,269,9.0,17.0,36,0.00,,,0.01,weatherlink.com 1.10,2016-07-24 22:23:00,
2016-07-24 16:38:00,79.1,60.0,30.07,WSW,242,6.0,12.0,53,0.01,,,0.02,weatherlink.com 1.10,2016-07-24 22:38:00,
2016-07-24 16:54:00,81.9,61.0,30.07,WSW,257,3.0,12.0,49,0.01,,,0.02,weatherlink.com 1.10,2016-07-24 22:54:00,
2016-07-24 17:08:00,84.4,58.0,30.07,SSW,207,2.0,8.0,41,0.01,,,0.02,weatherlink.com 1.10,2016-07-24 23:08:00,
2016-07-24 17:23:00,85.1,62.0,30.07,SSE,148,3.0,10.0,46,0.01,,,0.02,weatherlink.com 1.10,2016-07-24 23:23:00,